sensor_id;sensor_type;location;lat;lon;timestamp;P1;durP1;ratioP1;P2;durP2;ratioP2
69953;SDS011;57276;51.364;12.376;2023-07-08T00:04:28;6.70;;;4.20;;
69953;SDS011;57276;51.364;12.376;2023-07-08T00:10:30;7.03;;;4.30;;
69953;SDS011;57276;51.364;12.376;2023-07-08T00:16:31;8.00;;;4.10;;
69953;SDS011;57276;51.364;12.376;2023-07-08T00:22:33;8.88;;;4.85;;
69953;SDS011;57276;51.364;12.376;2023-07-08T00:28:37;6.17;;;4.23;;
69953;SDS011;57276;51.364;12.376;2023-07-08T00:34:39;8.10;;;4.68;;
69953;SDS011;57276;51.364;12.376;2023-07-08T00:40:48;8.33;;;4.40;;
69953;SDS011;57276;51.364;12.376;2023-07-08T00:46:55;9.27;;;4.30;;
69953;SDS011;57276;51.364;12.376;2023-07-08T00:59:42;6.57;;;4.20;;
69953;SDS011;57276;51.364;12.376;2023-07-08T01:05:40;7.03;;;4.55;;
69953;SDS011;57276;51.364;12.376;2023-07-08T01:11:43;7.37;;;4.83;;
69953;SDS011;57276;51.364;12.376;2023-07-08T01:17:44;8.10;;;3.90;;
69953;SDS011;57276;51.364;12.376;2023-07-08T01:23:46;8.57;;;4.10;;
69953;SDS011;57276;51.364;12.376;2023-07-08T01:29:48;8.27;;;4.00;;
69953;SDS011;57276;51.364;12.376;2023-07-08T01:35:49;7.18;;;4.07;;
69953;SDS011;57276;51.364;12.376;2023-07-08T01:41:51;6.47;;;4.00;;
69953;SDS011;57276;51.364;12.376;2023-07-08T01:47:55;5.70;;;4.10;;
69953;SDS011;57276;51.364;12.376;2023-07-08T01:53:58;6.30;;;4.18;;
69953;SDS011;57276;51.364;12.376;2023-07-08T01:59:59;7.33;;;4.00;;
69953;SDS011;57276;51.364;12.376;2023-07-08T02:06:01;7.32;;;4.28;;
69953;SDS011;57276;51.364;12.376;2023-07-08T02:12:03;8.60;;;4.33;;
69953;SDS011;57276;51.364;12.376;2023-07-08T02:18:04;7.72;;;4.53;;
69953;SDS011;57276;51.364;12.376;2023-07-08T02:24:06;7.32;;;4.10;;
69953;SDS011;57276;51.364;12.376;2023-07-08T02:30:10;8.40;;;4.20;;
69953;SDS011;57276;51.364;12.376;2023-07-08T02:36:12;6.95;;;4.20;;
69953;SDS011;57276;51.364;12.376;2023-07-08T02:42:13;8.73;;;4.50;;
69953;SDS011;57276;51.364;12.376;2023-07-08T02:48:17;8.30;;;4.25;;
69953;SDS011;57276;51.364;12.376;2023-07-08T02:54:19;6.40;;;4.13;;
69953;SDS011;57276;51.364;12.376;2023-07-08T03:00:20;7.47;;;4.47;;
69953;SDS011;57276;51.364;12.376;2023-07-08T03:06:22;7.20;;;4.45;;
69953;SDS011;57276;51.364;12.376;2023-07-08T03:12:24;7.43;;;4.50;;
69953;SDS011;57276;51.364;12.376;2023-07-08T03:18:25;8.05;;;4.50;;
69953;SDS011;57276;51.364;12.376;2023-07-08T03:24:28;8.13;;;4.50;;
69953;SDS011;57276;51.364;12.376;2023-07-08T03:30:34;8.00;;;4.60;;
69953;SDS011;57276;51.364;12.376;2023-07-08T03:36:39;7.68;;;4.55;;
69953;SDS011;57276;51.364;12.376;2023-07-08T03:42:41;8.20;;;4.13;;
69953;SDS011;57276;51.364;12.376;2023-07-08T03:48:43;7.60;;;4.68;;
69953;SDS011;57276;51.364;12.376;2023-07-08T03:54:45;7.47;;;4.38;;
69953;SDS011;57276;51.364;12.376;2023-07-08T04:00:46;5.90;;;4.20;;
69953;SDS011;57276;51.364;12.376;2023-07-08T04:06:48;6.82;;;4.72;;
69953;SDS011;57276;51.364;12.376;2023-07-08T04:12:51;8.90;;;4.97;;
69953;SDS011;57276;51.364;12.376;2023-07-08T04:18:53;8.45;;;4.53;;
69953;SDS011;57276;51.364;12.376;2023-07-08T04:24:54;10.68;;;4.80;;
69953;SDS011;57276;51.364;12.376;2023-07-08T04:30:56;7.23;;;4.60;;
69953;SDS011;57276;51.364;12.376;2023-07-08T04:36:58;7.22;;;5.05;;
69953;SDS011;57276;51.364;12.376;2023-07-08T04:43:00;8.90;;;5.00;;
69953;SDS011;57276;51.364;12.376;2023-07-08T04:49:01;9.80;;;4.88;;
69953;SDS011;57276;51.364;12.376;2023-07-08T04:55:04;7.72;;;4.43;;
69953;SDS011;57276;51.364;12.376;2023-07-08T05:01:05;8.00;;;4.90;;
69953;SDS011;57276;51.364;12.376;2023-07-08T05:07:07;7.22;;;4.65;;
69953;SDS011;57276;51.364;12.376;2023-07-08T05:13:08;7.33;;;4.30;;
69953;SDS011;57276;51.364;12.376;2023-07-08T05:19:10;7.85;;;4.38;;
69953;SDS011;57276;51.364;12.376;2023-07-08T05:25:13;6.50;;;4.00;;
69953;SDS011;57276;51.364;12.376;2023-07-08T05:31:15;7.90;;;4.40;;
69953;SDS011;57276;51.364;12.376;2023-07-08T05:37:17;6.68;;;4.63;;
69953;SDS011;57276;51.364;12.376;2023-07-08T05:43:22;7.70;;;4.67;;
69953;SDS011;57276;51.364;12.376;2023-07-08T05:49:24;7.22;;;4.10;;
69953;SDS011;57276;51.364;12.376;2023-07-08T05:55:26;6.38;;;4.10;;
69953;SDS011;57276;51.364;12.376;2023-07-08T06:01:27;7.07;;;3.97;;
69953;SDS011;57276;51.364;12.376;2023-07-08T06:07:29;8.38;;;4.35;;
69953;SDS011;57276;51.364;12.376;2023-07-08T06:13:30;6.87;;;4.20;;
69953;SDS011;57276;51.364;12.376;2023-07-08T06:19:32;7.00;;;4.10;;
69953;SDS011;57276;51.364;12.376;2023-07-08T06:25:34;7.43;;;4.20;;
69953;SDS011;57276;51.364;12.376;2023-07-08T06:31:35;8.10;;;4.50;;
69953;SDS011;57276;51.364;12.376;2023-07-08T06:37:37;7.50;;;4.18;;
69953;SDS011;57276;51.364;12.376;2023-07-08T06:43:38;7.43;;;4.47;;
69953;SDS011;57276;51.364;12.376;2023-07-08T06:49:50;6.68;;;4.20;;
69953;SDS011;57276;51.364;12.376;2023-07-08T06:55:52;7.57;;;4.15;;
69953;SDS011;57276;51.364;12.376;2023-07-08T07:01:53;6.90;;;4.30;;
69953;SDS011;57276;51.364;12.376;2023-07-08T07:07:55;6.90;;;4.47;;
69953;SDS011;57276;51.364;12.376;2023-07-08T07:13:57;9.17;;;4.37;;
69953;SDS011;57276;51.364;12.376;2023-07-08T07:19:59;8.35;;;4.55;;
69953;SDS011;57276;51.364;12.376;2023-07-08T07:26:00;7.18;;;4.40;;
69953;SDS011;57276;51.364;12.376;2023-07-08T07:32:02;6.90;;;4.13;;
69953;SDS011;57276;51.364;12.376;2023-07-08T07:38:04;7.93;;;4.30;;
69953;SDS011;57276;51.364;12.376;2023-07-08T07:44:05;10.37;;;4.83;;
69953;SDS011;57276;51.364;12.376;2023-07-08T07:50:08;7.22;;;4.40;;
69953;SDS011;57276;51.364;12.376;2023-07-08T07:56:10;7.95;;;4.43;;
69953;SDS011;57276;51.364;12.376;2023-07-08T08:02:11;7.47;;;4.23;;
69953;SDS011;57276;51.364;12.376;2023-07-08T08:08:13;10.10;;;4.72;;
69953;SDS011;57276;51.364;12.376;2023-07-08T08:14:14;7.60;;;4.03;;
69953;SDS011;57276;51.364;12.376;2023-07-08T08:20:16;7.00;;;4.32;;
69953;SDS011;57276;51.364;12.376;2023-07-08T08:26:17;10.85;;;4.68;;
69953;SDS011;57276;51.364;12.376;2023-07-08T08:32:19;6.37;;;4.00;;
69953;SDS011;57276;51.364;12.376;2023-07-08T08:38:20;10.75;;;4.72;;
69953;SDS011;57276;51.364;12.376;2023-07-08T08:44:25;7.23;;;3.93;;
69953;SDS011;57276;51.364;12.376;2023-07-08T08:50:29;7.95;;;4.43;;
69953;SDS011;57276;51.364;12.376;2023-07-08T08:56:34;7.57;;;4.05;;
69953;SDS011;57276;51.364;12.376;2023-07-08T09:08:43;7.30;;;4.43;;
69953;SDS011;57276;51.364;12.376;2023-07-08T09:14:44;7.57;;;4.33;;
69953;SDS011;57276;51.364;12.376;2023-07-08T09:20:46;8.68;;;4.68;;
69953;SDS011;57276;51.364;12.376;2023-07-08T09:26:48;6.72;;;4.60;;
69953;SDS011;57276;51.364;12.376;2023-07-08T09:32:51;6.67;;;4.90;;
69953;SDS011;57276;51.364;12.376;2023-07-08T09:38:52;7.05;;;4.55;;
69953;SDS011;57276;51.364;12.376;2023-07-08T09:44:55;8.23;;;4.30;;
69953;SDS011;57276;51.364;12.376;2023-07-08T09:50:57;7.63;;;4.40;;
69953;SDS011;57276;51.364;12.376;2023-07-08T09:57:09;6.80;;;4.82;;
69953;SDS011;57276;51.364;12.376;2023-07-08T10:03:23;6.53;;;4.40;;
69953;SDS011;57276;51.364;12.376;2023-07-08T10:09:25;7.60;;;4.10;;
69953;SDS011;57276;51.364;12.376;2023-07-08T10:15:28;6.07;;;4.13;;
69953;SDS011;57276;51.364;12.376;2023-07-08T10:33:41;7.80;;;4.60;;
69953;SDS011;57276;51.364;12.376;2023-07-08T10:39:51;9.05;;;4.60;;
69953;SDS011;57276;51.364;12.376;2023-07-08T10:45:58;7.03;;;4.40;;
69953;SDS011;57276;51.364;12.376;2023-07-08T10:52:18;5.45;;;4.00;;
69953;SDS011;57276;51.364;12.376;2023-07-08T10:58:25;8.02;;;4.32;;
69953;SDS011;57276;51.364;12.376;2023-07-08T11:04:32;6.60;;;4.57;;
69953;SDS011;57276;51.364;12.376;2023-07-08T11:10:43;6.28;;;4.63;;
69953;SDS011;57276;51.364;12.376;2023-07-08T11:16:51;7.40;;;5.00;;
69953;SDS011;57276;51.364;12.376;2023-07-08T11:23:04;7.65;;;4.38;;
69953;SDS011;57276;51.364;12.376;2023-07-08T11:29:10;6.70;;;4.10;;
69953;SDS011;57276;51.364;12.376;2023-07-08T11:36:01;7.10;;;4.70;;
69953;SDS011;57276;51.364;12.376;2023-07-08T11:41:37;7.70;;;4.80;;
69953;SDS011;57276;51.364;12.376;2023-07-08T11:47:39;6.63;;;4.00;;
69953;SDS011;57276;51.364;12.376;2023-07-08T11:53:49;8.10;;;4.45;;
69953;SDS011;57276;51.364;12.376;2023-07-08T12:00:06;5.72;;;3.83;;
69953;SDS011;57276;51.364;12.376;2023-07-08T12:12:30;6.38;;;4.53;;
69953;SDS011;57276;51.364;12.376;2023-07-08T12:18:34;8.20;;;4.60;;
69953;SDS011;57276;51.364;12.376;2023-07-08T12:24:36;7.97;;;5.68;;
69953;SDS011;57276;51.364;12.376;2023-07-08T12:30:41;5.60;;;4.72;;
69953;SDS011;57276;51.364;12.376;2023-07-08T12:36:44;7.80;;;4.60;;
69953;SDS011;57276;51.364;12.376;2023-07-08T12:42:46;5.93;;;5.32;;
69953;SDS011;57276;51.364;12.376;2023-07-08T12:48:47;6.30;;;5.70;;
69953;SDS011;57276;51.364;12.376;2023-07-08T12:54:49;6.77;;;6.07;;
69953;SDS011;57276;51.364;12.376;2023-07-08T13:00:50;7.07;;;6.13;;
69953;SDS011;57276;51.364;12.376;2023-07-08T13:06:52;7.20;;;6.60;;
69953;SDS011;57276;51.364;12.376;2023-07-08T13:12:56;6.90;;;6.30;;
69953;SDS011;57276;51.364;12.376;2023-07-08T13:18:58;8.77;;;7.97;;
69953;SDS011;57276;51.364;12.376;2023-07-08T13:25:01;7.30;;;6.60;;
69953;SDS011;57276;51.364;12.376;2023-07-08T13:31:12;7.60;;;6.90;;
69953;SDS011;57276;51.364;12.376;2023-07-08T13:37:15;7.95;;;7.20;;
69953;SDS011;57276;51.364;12.376;2023-07-08T13:43:22;8.50;;;7.80;;
69953;SDS011;57276;51.364;12.376;2023-07-08T13:55:31;10.70;;;9.90;;
69953;SDS011;57276;51.364;12.376;2023-07-08T14:01:34;11.80;;;10.70;;
69953;SDS011;57276;51.364;12.376;2023-07-08T14:07:36;9.68;;;8.95;;
69953;SDS011;57276;51.364;12.376;2023-07-08T14:13:38;9.80;;;9.00;;
69953;SDS011;57276;51.364;12.376;2023-07-08T14:19:39;9.40;;;8.50;;
69953;SDS011;57276;51.364;12.376;2023-07-08T14:25:41;9.05;;;8.35;;
69953;SDS011;57276;51.364;12.376;2023-07-08T14:31:43;9.33;;;8.53;;
69953;SDS011;57276;51.364;12.376;2023-07-08T14:37:44;11.05;;;10.15;;
69953;SDS011;57276;51.364;12.376;2023-07-08T14:43:46;11.98;;;11.07;;
69953;SDS011;57276;51.364;12.376;2023-07-08T14:49:48;12.77;;;11.87;;
69953;SDS011;57276;51.364;12.376;2023-07-08T14:55:50;12.85;;;11.85;;
69953;SDS011;57276;51.364;12.376;2023-07-08T15:01:53;15.50;;;14.50;;
69953;SDS011;57276;51.364;12.376;2023-07-08T15:07:55;14.40;;;13.40;;
69953;SDS011;57276;51.364;12.376;2023-07-08T15:13:58;14.40;;;13.13;;
69953;SDS011;57276;51.364;12.376;2023-07-08T15:20:00;12.13;;;11.23;;
69953;SDS011;57276;51.364;12.376;2023-07-08T15:26:09;10.27;;;9.48;;
69953;SDS011;57276;51.364;12.376;2023-07-08T15:32:13;9.73;;;8.20;;
69953;SDS011;57276;51.364;12.376;2023-07-08T15:38:37;8.90;;;7.15;;
69953;SDS011;57276;51.364;12.376;2023-07-08T15:44:38;6.40;;;5.80;;
69953;SDS011;57276;51.364;12.376;2023-07-08T15:50:40;7.20;;;6.33;;
69953;SDS011;57276;51.364;12.376;2023-07-08T15:56:42;5.97;;;5.20;;
69953;SDS011;57276;51.364;12.376;2023-07-08T16:02:44;5.97;;;5.25;;
69953;SDS011;57276;51.364;12.376;2023-07-08T16:08:45;48.53;;;38.33;;
69953;SDS011;57276;51.364;12.376;2023-07-08T16:14:47;30.52;;;24.35;;
69953;SDS011;57276;51.364;12.376;2023-07-08T16:20:48;31.67;;;28.67;;
69953;SDS011;57276;51.364;12.376;2023-07-08T16:26:50;77.35;;;70.22;;
69953;SDS011;57276;51.364;12.376;2023-07-08T16:32:52;20.73;;;18.75;;
69953;SDS011;57276;51.364;12.376;2023-07-08T16:38:54;12.13;;;10.63;;
69953;SDS011;57276;51.364;12.376;2023-07-08T16:44:55;11.15;;;10.05;;
69953;SDS011;57276;51.364;12.376;2023-07-08T16:50:57;7.23;;;5.50;;
69953;SDS011;57276;51.364;12.376;2023-07-08T16:56:59;56.70;;;36.30;;
69953;SDS011;57276;51.364;12.376;2023-07-08T17:03:02;65.88;;;52.03;;
69953;SDS011;57276;51.364;12.376;2023-07-08T17:09:03;45.37;;;31.67;;
69953;SDS011;57276;51.364;12.376;2023-07-08T17:15:07;20.30;;;12.43;;
69953;SDS011;57276;51.364;12.376;2023-07-08T17:21:11;11.13;;;8.43;;
69953;SDS011;57276;51.364;12.376;2023-07-08T17:27:14;9.45;;;5.70;;
69953;SDS011;57276;51.364;12.376;2023-07-08T17:33:16;20.25;;;14.55;;
69953;SDS011;57276;51.364;12.376;2023-07-08T17:39:18;13.73;;;9.10;;
69953;SDS011;57276;51.364;12.376;2023-07-08T17:45:21;11.77;;;8.43;;
69953;SDS011;57276;51.364;12.376;2023-07-08T17:51:25;10.80;;;6.60;;
69953;SDS011;57276;51.364;12.376;2023-07-08T17:57:26;12.07;;;8.27;;
69953;SDS011;57276;51.364;12.376;2023-07-08T18:03:28;14.10;;;7.93;;
69953;SDS011;57276;51.364;12.376;2023-07-08T18:09:29;11.93;;;7.30;;
69953;SDS011;57276;51.364;12.376;2023-07-08T18:15:33;14.25;;;8.93;;
69953;SDS011;57276;51.364;12.376;2023-07-08T18:21:35;14.70;;;8.73;;
69953;SDS011;57276;51.364;12.376;2023-07-08T18:27:37;9.85;;;6.25;;
69953;SDS011;57276;51.364;12.376;2023-07-08T18:33:38;10.25;;;6.70;;
69953;SDS011;57276;51.364;12.376;2023-07-08T18:39:40;12.67;;;7.17;;
69953;SDS011;57276;51.364;12.376;2023-07-08T18:45:42;10.88;;;6.28;;
69953;SDS011;57276;51.364;12.376;2023-07-08T18:51:43;10.80;;;6.87;;
69953;SDS011;57276;51.364;12.376;2023-07-08T18:57:45;9.77;;;6.40;;
69953;SDS011;57276;51.364;12.376;2023-07-08T19:03:47;8.88;;;6.00;;
69953;SDS011;57276;51.364;12.376;2023-07-08T19:09:49;10.03;;;6.07;;
69953;SDS011;57276;51.364;12.376;2023-07-08T19:15:51;10.35;;;6.20;;
69953;SDS011;57276;51.364;12.376;2023-07-08T19:21:56;9.80;;;6.40;;
69953;SDS011;57276;51.364;12.376;2023-07-08T19:27:58;9.40;;;6.25;;
69953;SDS011;57276;51.364;12.376;2023-07-08T19:34:00;8.73;;;6.38;;
69953;SDS011;57276;51.364;12.376;2023-07-08T19:40:04;9.57;;;6.53;;
69953;SDS011;57276;51.364;12.376;2023-07-08T19:46:07;10.10;;;6.25;;
69953;SDS011;57276;51.364;12.376;2023-07-08T19:52:11;10.27;;;6.90;;
69953;SDS011;57276;51.364;12.376;2023-07-08T19:58:13;11.00;;;6.82;;
69953;SDS011;57276;51.364;12.376;2023-07-08T20:04:14;10.90;;;6.70;;
69953;SDS011;57276;51.364;12.376;2023-07-08T20:10:18;11.53;;;6.97;;
69953;SDS011;57276;51.364;12.376;2023-07-08T20:22:21;11.60;;;7.13;;
69953;SDS011;57276;51.364;12.376;2023-07-08T20:28:25;12.00;;;7.40;;
69953;SDS011;57276;51.364;12.376;2023-07-08T20:34:45;11.60;;;6.00;;
69953;SDS011;57276;51.364;12.376;2023-07-08T20:40:46;13.23;;;6.33;;
69953;SDS011;57276;51.364;12.376;2023-07-08T20:46:48;11.38;;;6.72;;
69953;SDS011;57276;51.364;12.376;2023-07-08T20:52:51;11.90;;;7.30;;
69953;SDS011;57276;51.364;12.376;2023-07-08T20:58:52;13.68;;;7.28;;
69953;SDS011;57276;51.364;12.376;2023-07-08T21:04:56;13.05;;;7.70;;
69953;SDS011;57276;51.364;12.376;2023-07-08T21:10:58;11.30;;;7.83;;
69953;SDS011;57276;51.364;12.376;2023-07-08T21:16:59;15.20;;;8.15;;
69953;SDS011;57276;51.364;12.376;2023-07-08T21:23:05;16.83;;;7.90;;
69953;SDS011;57276;51.364;12.376;2023-07-08T21:29:07;13.23;;;8.52;;
69953;SDS011;57276;51.364;12.376;2023-07-08T21:35:09;13.10;;;8.10;;
69953;SDS011;57276;51.364;12.376;2023-07-08T21:41:12;13.13;;;8.50;;
69953;SDS011;57276;51.364;12.376;2023-07-08T21:47:14;14.68;;;8.55;;
69953;SDS011;57276;51.364;12.376;2023-07-08T21:53:22;12.93;;;8.27;;
69953;SDS011;57276;51.364;12.376;2023-07-08T21:59:24;12.88;;;7.78;;
69953;SDS011;57276;51.364;12.376;2023-07-08T22:05:26;10.10;;;7.13;;
69953;SDS011;57276;51.364;12.376;2023-07-08T22:11:28;10.40;;;7.27;;
69953;SDS011;57276;51.364;12.376;2023-07-08T22:17:31;11.63;;;7.80;;
69953;SDS011;57276;51.364;12.376;2023-07-08T22:23:32;10.93;;;8.30;;
69953;SDS011;57276;51.364;12.376;2023-07-08T22:29:34;11.50;;;7.68;;
69953;SDS011;57276;51.364;12.376;2023-07-08T22:35:36;10.43;;;7.25;;
69953;SDS011;57276;51.364;12.376;2023-07-08T22:41:41;10.03;;;7.67;;
69953;SDS011;57276;51.364;12.376;2023-07-08T22:47:43;12.30;;;8.50;;
69953;SDS011;57276;51.364;12.376;2023-07-08T22:53:51;10.90;;;7.70;;
69953;SDS011;57276;51.364;12.376;2023-07-08T22:59:55;10.88;;;7.13;;
69953;SDS011;57276;51.364;12.376;2023-07-08T23:05:56;8.35;;;6.95;;
69953;SDS011;57276;51.364;12.376;2023-07-08T23:11:59;10.93;;;6.83;;
69953;SDS011;57276;51.364;12.376;2023-07-08T23:18:01;11.05;;;6.53;;
69953;SDS011;57276;51.364;12.376;2023-07-08T23:24:04;9.77;;;6.70;;
69953;SDS011;57276;51.364;12.376;2023-07-08T23:30:09;9.40;;;6.80;;
69953;SDS011;57276;51.364;12.376;2023-07-08T23:36:24;9.18;;;5.95;;
69953;SDS011;57276;51.364;12.376;2023-07-08T23:42:29;10.13;;;6.20;;
69953;SDS011;57276;51.364;12.376;2023-07-08T23:48:30;8.73;;;6.32;;
69953;SDS011;57276;51.364;12.376;2023-07-08T23:54:33;9.47;;;6.13;;
